sensor_id;sensor_type;location;lat;lon;timestamp;pressure;altitude;pressure_sealevel;temperature;humidity
63285;BME280;49409;55.708;37.522;2022-12-28T00:01:23;98756.47;;;5.71;53.25
63285;BME280;49409;55.708;37.522;2022-12-28T00:03:51;98745.56;;;5.71;53.09
63285;BME280;49409;55.708;37.522;2022-12-28T00:06:18;98752.19;;;5.70;53.11
63285;BME280;49409;55.708;37.522;2022-12-28T00:08:44;98751.03;;;5.68;53.29
63285;BME280;49409;55.708;37.522;2022-12-28T00:11:15;98750.28;;;5.67;53.21
63285;BME280;49409;55.708;37.522;2022-12-28T00:13:41;98753.38;;;5.73;53.14
63285;BME280;49409;55.708;37.522;2022-12-28T00:16:11;98740.13;;;5.64;53.50
63285;BME280;49409;55.708;37.522;2022-12-28T00:18:37;98743.69;;;5.61;53.79
63285;BME280;49409;55.708;37.522;2022-12-28T00:21:08;98735.50;;;5.61;53.64
63285;BME280;49409;55.708;37.522;2022-12-28T00:23:33;98735.53;;;5.54;53.98
63285;BME280;49409;55.708;37.522;2022-12-28T00:26:12;98727.31;;;5.61;53.44
63285;BME280;49409;55.708;37.522;2022-12-28T00:28:38;98726.94;;;5.59;53.74
63285;BME280;49409;55.708;37.522;2022-12-28T00:31:04;98724.56;;;5.61;53.13
63285;BME280;49409;55.708;37.522;2022-12-28T00:33:30;98717.56;;;5.60;53.77
63285;BME280;49409;55.708;37.522;2022-12-28T00:35:58;98703.16;;;5.56;53.01
63285;BME280;49409;55.708;37.522;2022-12-28T00:38:24;98698.81;;;5.62;53.48
63285;BME280;49409;55.708;37.522;2022-12-28T00:40:50;98704.34;;;5.55;53.43
63285;BME280;49409;55.708;37.522;2022-12-28T00:43:16;98708.22;;;5.54;53.79
63285;BME280;49409;55.708;37.522;2022-12-28T00:45:46;98707.47;;;5.53;53.70
63285;BME280;49409;55.708;37.522;2022-12-28T00:48:12;98707.09;;;5.48;53.60
63285;BME280;49409;55.708;37.522;2022-12-28T00:50:37;98705.91;;;5.49;53.67
63285;BME280;49409;55.708;37.522;2022-12-28T00:53:03;98702.03;;;5.50;53.74
63285;BME280;49409;55.708;37.522;2022-12-28T00:55:29;98698.50;;;5.53;53.36
63285;BME280;49409;55.708;37.522;2022-12-28T00:57:57;98694.97;;;5.56;53.78
63285;BME280;49409;55.708;37.522;2022-12-28T01:00:23;98696.50;;;5.61;53.58
63285;BME280;49409;55.708;37.522;2022-12-28T01:02:49;98704.28;;;5.62;53.35
63285;BME280;49409;55.708;37.522;2022-12-28T01:05:14;98693.34;;;5.66;52.98
63285;BME280;49409;55.708;37.522;2022-12-28T01:07:40;98696.44;;;5.68;53.13
63285;BME280;49409;55.708;37.522;2022-12-28T01:10:06;98684.75;;;5.71;53.02
63285;BME280;49409;55.708;37.522;2022-12-28T01:12:32;98694.94;;;5.60;52.81
63285;BME280;49409;55.708;37.522;2022-12-28T01:14:57;98682.06;;;5.60;53.23
63285;BME280;49409;55.708;37.522;2022-12-28T01:17:23;98684.06;;;5.56;53.28
63285;BME280;49409;55.708;37.522;2022-12-28T01:19:49;98684.47;;;5.51;53.22
63285;BME280;49409;55.708;37.522;2022-12-28T01:22:14;98680.59;;;5.48;53.62
63285;BME280;49409;55.708;37.522;2022-12-28T01:24:41;98679.81;;;5.48;53.04
63285;BME280;49409;55.708;37.522;2022-12-28T01:27:07;98679.44;;;5.46;53.43
63285;BME280;49409;55.708;37.522;2022-12-28T01:29:32;98668.53;;;5.42;53.59
63285;BME280;49409;55.708;37.522;2022-12-28T01:31:58;98669.28;;;5.46;53.76
63285;BME280;49409;55.708;37.522;2022-12-28T01:34:24;98668.53;;;5.46;53.58
63285;BME280;49409;55.708;37.522;2022-12-28T01:36:49;98671.63;;;5.51;53.16
63285;BME280;49409;55.708;37.522;2022-12-28T01:39:15;98674.69;;;5.57;53.27
63285;BME280;49409;55.708;37.522;2022-12-28T01:41:40;98667.69;;;5.56;53.43
63285;BME280;49409;55.708;37.522;2022-12-28T01:46:59;98663.72;;;5.64;53.05
63285;BME280;49409;55.708;37.522;2022-12-28T01:49:33;98658.28;;;5.61;52.88
63285;BME280;49409;55.708;37.522;2022-12-28T01:52:09;98670.00;;;5.61;52.78
63285;BME280;49409;55.708;37.522;2022-12-28T01:54:53;98655.94;;;5.63;53.29
63285;BME280;49409;55.708;37.522;2022-12-28T01:57:24;98657.06;;;5.69;53.05
63285;BME280;49409;55.708;37.522;2022-12-28T01:59:59;98652.75;;;5.71;52.98
63285;BME280;49409;55.708;37.522;2022-12-28T02:02:27;98659.00;;;5.68;53.06
63285;BME280;49409;55.708;37.522;2022-12-28T02:04:53;98661.38;;;5.66;52.36
63285;BME280;49409;55.708;37.522;2022-12-28T02:07:48;98658.97;;;5.75;52.74
63285;BME280;49409;55.708;37.522;2022-12-28T02:10:16;98644.97;;;5.70;52.84
63285;BME280;49409;55.708;37.522;2022-12-28T02:12:42;98648.91;;;5.65;52.96
63285;BME280;49409;55.708;37.522;2022-12-28T02:15:09;98651.25;;;5.67;52.41
63285;BME280;49409;55.708;37.522;2022-12-28T02:17:35;98649.69;;;5.66;52.91
63285;BME280;49409;55.708;37.522;2022-12-28T02:20:01;98645.78;;;5.67;52.48
63285;BME280;49409;55.708;37.522;2022-12-28T02:22:37;98652.78;;;5.68;53.05
63285;BME280;49409;55.708;37.522;2022-12-28T02:30:56;98648.03;;;5.75;52.55
63285;BME280;49409;55.708;37.522;2022-12-28T02:33:57;98649.53;;;5.84;52.30
63285;BME280;49409;55.708;37.522;2022-12-28T02:36:31;98647.31;;;5.68;52.31
63285;BME280;49409;55.708;37.522;2022-12-28T02:39:02;98655.13;;;5.69;52.65
63285;BME280;49409;55.708;37.522;2022-12-28T02:41:30;98649.69;;;5.62;52.53
63285;BME280;49409;55.708;37.522;2022-12-28T02:43:58;98651.28;;;5.60;52.69
63285;BME280;49409;55.708;37.522;2022-12-28T02:46:28;98650.53;;;5.59;53.09
63285;BME280;49409;55.708;37.522;2022-12-28T02:49:25;98649.66;;;5.69;52.57
63285;BME280;49409;55.708;37.522;2022-12-28T03:04:13;98636.50;;;5.57;53.15
63285;BME280;49409;55.708;37.522;2022-12-28T03:15:17;98641.25;;;5.46;52.92
63285;BME280;49409;55.708;37.522;2022-12-28T03:18:07;98640.91;;;5.36;53.09
63285;BME280;49409;55.708;37.522;2022-12-28T03:20:55;98640.47;;;5.45;52.52
63285;BME280;49409;55.708;37.522;2022-12-28T03:23:47;98638.91;;;5.44;53.10
63285;BME280;49409;55.708;37.522;2022-12-28T03:26:34;98640.44;;;5.49;52.94
63285;BME280;49409;55.708;37.522;2022-12-28T03:29:22;98628.34;;;5.50;52.90
63285;BME280;49409;55.708;37.522;2022-12-28T03:32:08;98626.78;;;5.49;52.38
63285;BME280;49409;55.708;37.522;2022-12-28T03:34:34;98626.00;;;5.52;52.28
63285;BME280;49409;55.708;37.522;2022-12-28T03:39:55;98630.97;;;5.64;53.09
63285;BME280;49409;55.708;37.522;2022-12-28T03:42:38;98621.25;;;5.63;52.91
63285;BME280;49409;55.708;37.522;2022-12-28T03:47:55;98623.94;;;5.67;52.41
63285;BME280;49409;55.708;37.522;2022-12-28T03:50:22;98624.78;;;5.56;52.41
63285;BME280;49409;55.708;37.522;2022-12-28T03:52:50;98617.03;;;5.55;52.65
63285;BME280;49409;55.708;37.522;2022-12-28T03:55:16;98627.16;;;5.51;52.56
63285;BME280;49409;55.708;37.522;2022-12-28T03:57:48;98620.91;;;5.54;52.52
63285;BME280;49409;55.708;37.522;2022-12-28T04:00:14;98623.25;;;5.55;52.28
63285;BME280;49409;55.708;37.522;2022-12-28T04:02:39;98612.41;;;5.45;52.71
63285;BME280;49409;55.708;37.522;2022-12-28T04:05:05;98610.16;;;5.32;52.94
63285;BME280;49409;55.708;37.522;2022-12-28T04:07:31;98604.75;;;5.25;52.50
63285;BME280;49409;55.708;37.522;2022-12-28T04:09:56;98602.44;;;5.20;53.27
63285;BME280;49409;55.708;37.522;2022-12-28T04:12:22;98576.81;;;5.07;52.94
63285;BME280;49409;55.708;37.522;2022-12-28T04:14:47;98586.91;;;5.13;52.72
63285;BME280;49409;55.708;37.522;2022-12-28T04:17:13;98557.34;;;5.01;52.39
63285;BME280;49409;55.708;37.522;2022-12-28T04:19:38;98613.25;;;5.34;52.39
63285;BME280;49409;55.708;37.522;2022-12-28T04:22:04;98590.72;;;5.23;52.89
63285;BME280;49409;55.708;37.522;2022-12-28T04:24:29;98597.38;;;5.22;52.33
63285;BME280;49409;55.708;37.522;2022-12-28T04:26:55;98617.53;;;5.35;52.39
63285;BME280;49409;55.708;37.522;2022-12-28T04:29:20;98607.78;;;5.34;52.20
63285;BME280;49409;55.708;37.522;2022-12-28T04:31:46;98586.47;;;5.19;52.71
63285;BME280;49409;55.708;37.522;2022-12-28T04:34:12;98586.81;;;5.24;52.89
63285;BME280;49409;55.708;37.522;2022-12-28T04:36:38;98604.66;;;5.40;52.17
63285;BME280;49409;55.708;37.522;2022-12-28T04:39:04;98605.03;;;5.38;52.23
63285;BME280;49409;55.708;37.522;2022-12-28T04:41:29;98607.75;;;5.42;52.77
63285;BME280;49409;55.708;37.522;2022-12-28T04:43:55;98598.81;;;5.38;52.91
63285;BME280;49409;55.708;37.522;2022-12-28T04:46:21;98607.00;;;5.38;52.42
63285;BME280;49409;55.708;37.522;2022-12-28T04:48:48;98606.22;;;5.37;52.81
63285;BME280;49409;55.708;37.522;2022-12-28T04:53:43;98592.25;;;5.31;52.23
63285;BME280;49409;55.708;37.522;2022-12-28T04:56:10;98595.34;;;5.33;53.06
63285;BME280;49409;55.708;37.522;2022-12-28T04:58:36;98594.59;;;5.29;52.43
63285;BME280;49409;55.708;37.522;2022-12-28T05:01:07;98593.41;;;5.30;52.71
63285;BME280;49409;55.708;37.522;2022-12-28T05:03:33;98572.84;;;5.15;52.59
63285;BME280;49409;55.708;37.522;2022-12-28T05:06:01;98555.00;;;5.07;52.32
63285;BME280;49409;55.708;37.522;2022-12-28T05:08:26;98605.09;;;5.31;52.88
63285;BME280;49409;55.708;37.522;2022-12-28T05:10:53;98591.06;;;5.32;53.09
63285;BME280;49409;55.708;37.522;2022-12-28T05:13:18;98582.13;;;5.28;52.64
63285;BME280;49409;55.708;37.522;2022-12-28T05:15:44;98586.03;;;5.27;52.79
63285;BME280;49409;55.708;37.522;2022-12-28T05:18:09;98596.88;;;5.34;52.89
63285;BME280;49409;55.708;37.522;2022-12-28T05:20:35;98579.38;;;5.32;52.34
63285;BME280;49409;55.708;37.522;2022-12-28T05:23:00;98542.13;;;5.07;52.88
63285;BME280;49409;55.708;37.522;2022-12-28T05:25:26;98570.44;;;5.28;52.98
63285;BME280;49409;55.708;37.522;2022-12-28T05:27:53;98596.03;;;5.45;52.88
63285;BME280;49409;55.708;37.522;2022-12-28T05:30:19;98590.63;;;5.41;52.39
63285;BME280;49409;55.708;37.522;2022-12-28T05:32:44;98582.88;;;5.32;52.96
63285;BME280;49409;55.708;37.522;2022-12-28T05:35:10;98595.72;;;5.35;52.76
63285;BME280;49409;55.708;37.522;2022-12-28T05:37:35;98591.03;;;5.36;52.66
63285;BME280;49409;55.708;37.522;2022-12-28T05:40:01;98580.59;;;5.24;52.59
63285;BME280;49409;55.708;37.522;2022-12-28T05:42:27;98600.00;;;5.36;52.57
63285;BME280;49409;55.708;37.522;2022-12-28T05:44:52;98594.53;;;5.36;52.28
63285;BME280;49409;55.708;37.522;2022-12-28T05:47:18;98607.03;;;5.34;52.61
63285;BME280;49409;55.708;37.522;2022-12-28T05:49:43;98599.25;;;5.32;52.38
63285;BME280;49409;55.708;37.522;2022-12-28T05:52:09;98588.81;;;5.20;52.23
63285;BME280;49409;55.708;37.522;2022-12-28T05:54:34;98610.16;;;5.32;52.46
63285;BME280;49409;55.708;37.522;2022-12-28T05:57:00;98607.03;;;5.30;52.75
63285;BME280;49409;55.708;37.522;2022-12-28T05:59:26;98597.38;;;5.22;52.52
63285;BME280;49409;55.708;37.522;2022-12-28T06:01:51;98601.63;;;5.23;52.77
63285;BME280;49409;55.708;37.522;2022-12-28T06:04:18;98611.34;;;5.31;52.55
63285;BME280;49409;55.708;37.522;2022-12-28T06:06:45;98630.75;;;5.37;52.96
63285;BME280;49409;55.708;37.522;2022-12-28T06:09:13;98617.16;;;5.33;53.03
63285;BME280;49409;55.708;37.522;2022-12-28T06:11:39;98605.44;;;5.36;52.68
63285;BME280;49409;55.708;37.522;2022-12-28T06:14:05;98617.84;;;5.45;52.45
63285;BME280;49409;55.708;37.522;2022-12-28T06:16:34;98592.25;;;5.31;52.83
63285;BME280;49409;55.708;37.522;2022-12-28T06:19:04;98619.41;;;5.49;52.29
63285;BME280;49409;55.708;37.522;2022-12-28T06:21:32;98619.41;;;5.49;52.60
63285;BME280;49409;55.708;37.522;2022-12-28T06:23:59;98611.63;;;5.44;52.55
63285;BME280;49409;55.708;37.522;2022-12-28T06:26:26;98624.44;;;5.51;52.32
63285;BME280;49409;55.708;37.522;2022-12-28T06:28:52;98615.47;;;5.50;52.61
63285;BME280;49409;55.708;37.522;2022-12-28T06:31:44;98623.16;;;5.66;52.34
63285;BME280;49409;55.708;37.522;2022-12-28T06:34:15;98632.94;;;5.64;52.31
63285;BME280;49409;55.708;37.522;2022-12-28T06:36:42;98629.81;;;5.62;52.56
63285;BME280;49409;55.708;37.522;2022-12-28T06:39:10;98630.22;;;5.60;52.29
63285;BME280;49409;55.708;37.522;2022-12-28T06:41:37;98613.13;;;5.52;52.28
63285;BME280;49409;55.708;37.522;2022-12-28T06:44:08;98622.09;;;5.53;52.03
63285;BME280;49409;55.708;37.522;2022-12-28T06:46:34;98612.34;;;5.52;52.68
63285;BME280;49409;55.708;37.522;2022-12-28T06:49:00;98615.09;;;5.48;52.45
63285;BME280;49409;55.708;37.522;2022-12-28T06:51:31;98604.59;;;5.47;52.62
63285;BME280;49409;55.708;37.522;2022-12-28T06:54:01;98603.78;;;5.50;52.62
63285;BME280;49409;55.708;37.522;2022-12-28T06:56:28;98571.25;;;5.21;52.60
63285;BME280;49409;55.708;37.522;2022-12-28T06:58:56;98625.50;;;5.64;52.68
63285;BME280;49409;55.708;37.522;2022-12-28T07:01:24;98621.59;;;5.69;52.51
63285;BME280;49409;55.708;37.522;2022-12-28T07:03:52;98571.91;;;5.40;52.21
63285;BME280;49409;55.708;37.522;2022-12-28T07:06:20;98630.09;;;5.74;52.58
63285;BME280;49409;55.708;37.522;2022-12-28T07:08:46;98627.00;;;5.72;52.66
63285;BME280;49409;55.708;37.522;2022-12-28T07:11:16;98635.94;;;5.76;52.74
63285;BME280;49409;55.708;37.522;2022-12-28T07:13:41;98610.69;;;5.65;52.58
63285;BME280;49409;55.708;37.522;2022-12-28T07:16:11;98628.09;;;5.82;51.95
63285;BME280;49409;55.708;37.522;2022-12-28T07:18:37;98625.34;;;5.86;52.42
63285;BME280;49409;55.708;37.522;2022-12-28T07:21:06;98624.53;;;5.89;52.20
63285;BME280;49409;55.708;37.522;2022-12-28T07:23:33;98630.75;;;5.93;52.65
63285;BME280;49409;55.708;37.522;2022-12-28T07:26:04;98634.25;;;5.97;52.48
63285;BME280;49409;55.708;37.522;2022-12-28T07:28:30;98566.34;;;5.54;52.64
63285;BME280;49409;55.708;37.522;2022-12-28T07:30:56;98618.34;;;5.85;52.33
63285;BME280;49409;55.708;37.522;2022-12-28T07:33:21;98622.19;;;5.91;52.07
63285;BME280;49409;55.708;37.522;2022-12-28T07:35:47;98623.72;;;5.92;52.13
63285;BME280;49409;55.708;37.522;2022-12-28T07:38:12;98614.00;;;5.91;52.72
63285;BME280;49409;55.708;37.522;2022-12-28T07:40:38;98648.59;;;6.08;52.75
63285;BME280;49409;55.708;37.522;2022-12-28T07:43:03;98645.03;;;6.11;52.44
63285;BME280;49409;55.708;37.522;2022-12-28T07:45:29;98625.25;;;6.00;52.48
63285;BME280;49409;55.708;37.522;2022-12-28T07:47:54;98626.00;;;6.04;51.98
63285;BME280;49409;55.708;37.522;2022-12-28T07:50:20;98644.97;;;6.19;51.93
63285;BME280;49409;55.708;37.522;2022-12-28T07:52:45;98643.38;;;6.21;52.06
63285;BME280;49409;55.708;37.522;2022-12-28T07:55:11;98616.56;;;6.12;52.27
63285;BME280;49409;55.708;37.522;2022-12-28T07:57:37;98638.25;;;6.27;52.19
63285;BME280;49409;55.708;37.522;2022-12-28T08:00:04;98629.66;;;6.28;52.08
63285;BME280;49409;55.708;37.522;2022-12-28T08:02:32;98616.09;;;6.18;52.15
63285;BME280;49409;55.708;37.522;2022-12-28T08:04:57;98618.06;;;6.17;52.38
63285;BME280;49409;55.708;37.522;2022-12-28T08:07:26;98632.06;;;6.23;52.29
63285;BME280;49409;55.708;37.522;2022-12-28T08:09:51;98620.00;;;6.20;52.25
63285;BME280;49409;55.708;37.522;2022-12-28T08:12:17;98599.09;;;6.03;51.84
63285;BME280;49409;55.708;37.522;2022-12-28T08:14:43;98590.94;;;5.99;52.07
63285;BME280;49409;55.708;37.522;2022-12-28T08:17:08;98623.13;;;6.19;51.76
63285;BME280;49409;55.708;37.522;2022-12-28T08:19:34;98621.22;;;6.12;51.81
63285;BME280;49409;55.708;37.522;2022-12-28T08:22:00;98627.06;;;6.14;51.87
63285;BME280;49409;55.708;37.522;2022-12-28T08:24:26;98632.94;;;6.12;52.20
63285;BME280;49409;55.708;37.522;2022-12-28T08:26:51;98632.56;;;6.10;51.79
63285;BME280;49409;55.708;37.522;2022-12-28T08:29:20;98632.94;;;6.12;52.18
63285;BME280;49409;55.708;37.522;2022-12-28T08:31:46;98618.19;;;6.06;51.65
63285;BME280;49409;55.708;37.522;2022-12-28T08:34:15;98618.91;;;6.10;51.67
63285;BME280;49409;55.708;37.522;2022-12-28T08:36:41;98615.72;;;6.15;51.71
63285;BME280;49409;55.708;37.522;2022-12-28T08:39:07;98626.59;;;6.23;51.87
63285;BME280;49409;55.708;37.522;2022-12-28T08:41:33;98626.59;;;6.23;51.57
63285;BME280;49409;55.708;37.522;2022-12-28T08:43:59;98608.31;;;6.16;51.39
63285;BME280;49409;55.708;37.522;2022-12-28T08:46:30;98612.53;;;6.24;51.45
63285;BME280;49409;55.708;37.522;2022-12-28T08:48:57;98639.75;;;6.35;51.80
63285;BME280;49409;55.708;37.522;2022-12-28T08:51:37;98643.56;;;6.41;51.81
63285;BME280;49409;55.708;37.522;2022-12-28T08:54:07;98629.56;;;6.35;51.51
63285;BME280;49409;55.708;37.522;2022-12-28T08:56:36;98619.50;;;6.29;51.65
63285;BME280;49409;55.708;37.522;2022-12-28T08:59:03;98632.75;;;6.34;51.63
63285;BME280;49409;55.708;37.522;2022-12-28T09:01:31;98631.53;;;6.35;51.80
63285;BME280;49409;55.708;37.522;2022-12-28T09:04:23;98614.78;;;6.33;51.28
63285;BME280;49409;55.708;37.522;2022-12-28T09:06:49;98636.53;;;6.44;51.17
63285;BME280;49409;55.708;37.522;2022-12-28T09:09:16;98641.22;;;6.43;51.56
63285;BME280;49409;55.708;37.522;2022-12-28T09:11:43;98603.91;;;6.26;51.41
63285;BME280;49409;55.708;37.522;2022-12-28T09:14:11;98612.47;;;6.28;51.49
63285;BME280;49409;55.708;37.522;2022-12-28T09:16:37;98605.47;;;6.27;51.36
63285;BME280;49409;55.708;37.522;2022-12-28T09:19:06;98631.91;;;6.37;51.17
63285;BME280;49409;55.708;37.522;2022-12-28T09:21:35;98631.22;;;6.29;51.59
63285;BME280;49409;55.708;37.522;2022-12-28T09:24:01;98613.72;;;6.23;51.74
63285;BME280;49409;55.708;37.522;2022-12-28T09:26:28;98640.94;;;6.34;51.98
63285;BME280;49409;55.708;37.522;2022-12-28T09:28:57;98608.97;;;6.27;51.82
63285;BME280;49409;55.708;37.522;2022-12-28T09:31:25;98612.56;;;6.21;52.05
63285;BME280;49409;55.708;37.522;2022-12-28T09:33:51;98611.72;;;6.27;51.60
63285;BME280;49409;55.708;37.522;2022-12-28T09:36:29;98631.53;;;6.35;51.65
63285;BME280;49409;55.708;37.522;2022-12-28T09:38:55;98619.56;;;6.22;51.94
63285;BME280;49409;55.708;37.522;2022-12-28T09:41:29;98628.09;;;6.27;51.85
63285;BME280;49409;55.708;37.522;2022-12-28T09:46:42;98625.19;;;6.07;52.20
63285;BME280;49409;55.708;37.522;2022-12-28T09:49:17;98627.97;;;6.00;52.62
63285;BME280;49409;55.708;37.522;2022-12-28T09:51:51;98642.69;;;6.13;52.55
63285;BME280;49409;55.708;37.522;2022-12-28T09:54:19;98624.88;;;5.98;52.58
63285;BME280;49409;55.708;37.522;2022-12-28T09:56:45;98639.22;;;6.09;52.60
63285;BME280;49409;55.708;37.522;2022-12-28T09:59:19;98642.25;;;6.19;52.80
63285;BME280;49409;55.708;37.522;2022-12-28T10:01:52;98630.59;;;6.14;52.13
63285;BME280;49409;55.708;37.522;2022-12-28T10:04:19;98627.41;;;6.20;52.06
63285;BME280;49409;55.708;37.522;2022-12-28T10:06:45;98615.72;;;6.15;52.32
63285;BME280;49409;55.708;37.522;2022-12-28T10:09:32;98618.84;;;6.18;52.63
63285;BME280;49409;55.708;37.522;2022-12-28T10:11:58;98615.84;;;6.05;52.35
63285;BME280;49409;55.708;37.522;2022-12-28T10:14:34;98636.69;;;6.26;52.23
63285;BME280;49409;55.708;37.522;2022-12-28T10:17:00;98643.66;;;6.34;52.21
63285;BME280;49409;55.708;37.522;2022-12-28T10:19:28;98648.69;;;6.39;51.41
63285;BME280;49409;55.708;37.522;2022-12-28T10:24:24;98641.16;;;6.09;52.35
63285;BME280;49409;55.708;37.522;2022-12-28T10:26:50;98596.94;;;5.80;52.41
63285;BME280;49409;55.708;37.522;2022-12-28T10:29:18;98658.97;;;6.24;52.23
63285;BME280;49409;55.708;37.522;2022-12-28T10:31:58;98661.81;;;6.13;52.87
63285;BME280;49409;55.708;37.522;2022-12-28T10:34:25;98664.16;;;6.11;52.94
63285;BME280;49409;55.708;37.522;2022-12-28T10:36:51;98651.78;;;6.00;53.17
63285;BME280;49409;55.708;37.522;2022-12-28T10:39:27;98654.00;;;6.12;52.80
63285;BME280;49409;55.708;37.522;2022-12-28T10:41:54;98660.31;;;6.05;52.98
63285;BME280;49409;55.708;37.522;2022-12-28T10:44:30;98651.09;;;5.85;53.59
63285;BME280;49409;55.708;37.522;2022-12-28T10:47:02;98654.53;;;5.96;53.34
63285;BME280;49409;55.708;37.522;2022-12-28T10:49:36;98629.97;;;5.96;53.43
63285;BME280;49409;55.708;37.522;2022-12-28T10:54:33;98660.16;;;6.23;52.87
63285;BME280;49409;55.708;37.522;2022-12-28T10:56:59;98649.28;;;6.16;52.40
63285;BME280;49409;55.708;37.522;2022-12-28T10:59:27;98644.72;;;6.02;52.85
63285;BME280;49409;55.708;37.522;2022-12-28T11:01:55;98617.97;;;5.83;53.51
63285;BME280;49409;55.708;37.522;2022-12-28T11:05:00;98668.72;;;6.25;53.36
63285;BME280;49409;55.708;37.522;2022-12-28T11:07:37;98667.13;;;6.28;52.84
63285;BME280;49409;55.708;37.522;2022-12-28T11:10:22;98664.59;;;6.48;52.74
63285;BME280;49409;55.708;37.522;2022-12-28T11:12:50;98628.41;;;5.95;52.15
63285;BME280;49409;55.708;37.522;2022-12-28T11:15:19;98665.78;;;6.05;52.81
63285;BME280;49409;55.708;37.522;2022-12-28T11:17:52;98647.94;;;5.90;52.88
63285;BME280;49409;55.708;37.522;2022-12-28T11:20:21;98660.38;;;5.98;52.60
63285;BME280;49409;55.708;37.522;2022-12-28T11:22:49;98675.09;;;6.11;52.83
63285;BME280;49409;55.708;37.522;2022-12-28T11:25:17;98649.38;;;6.09;52.75
63285;BME280;49409;55.708;37.522;2022-12-28T11:27:45;98667.22;;;6.21;52.99
63285;BME280;49409;55.708;37.522;2022-12-28T11:30:17;98681.09;;;6.37;52.59
63285;BME280;49409;55.708;37.522;2022-12-28T11:33:00;98664.75;;;6.30;51.83
63285;BME280;49409;55.708;37.522;2022-12-28T11:35:30;98661.75;;;6.21;51.64
63285;BME280;49409;55.708;37.522;2022-12-28T11:38:01;98678.19;;;6.13;51.82
63285;BME280;49409;55.708;37.522;2022-12-28T11:40:48;98679.84;;;6.00;52.18
63285;BME280;49409;55.708;37.522;2022-12-28T11:45:58;98671.91;;;5.64;53.08
63285;BME280;49409;55.708;37.522;2022-12-28T11:51:03;98677.81;;;5.55;52.95
63285;BME280;49409;55.708;37.522;2022-12-28T11:56:03;98622.78;;;5.05;52.90
63285;BME280;49409;55.708;37.522;2022-12-28T11:58:33;98689.63;;;5.38;53.41
63285;BME280;49409;55.708;37.522;2022-12-28T12:00:59;98686.47;;;5.43;53.12
63285;BME280;49409;55.708;37.522;2022-12-28T12:11:47;98701.09;;;5.01;53.45
63285;BME280;49409;55.708;37.522;2022-12-28T12:14:15;98691.78;;;4.94;53.29
63285;BME280;49409;55.708;37.522;2022-12-28T12:17:04;98699.94;;;5.02;53.76
63285;BME280;49409;55.708;37.522;2022-12-28T12:19:34;98689.81;;;4.91;53.64
63285;BME280;49409;55.708;37.522;2022-12-28T12:22:05;98710.00;;;5.12;53.53
63285;BME280;49409;55.708;37.522;2022-12-28T12:24:40;98687.44;;;5.08;53.76
63285;BME280;49409;55.708;37.522;2022-12-28T12:27:16;98720.06;;;5.29;53.11
63285;BME280;49409;55.708;37.522;2022-12-28T12:29:48;98715.78;;;5.28;53.34
63285;BME280;49409;55.708;37.522;2022-12-28T12:32:30;98681.13;;;5.25;53.07
63285;BME280;49409;55.708;37.522;2022-12-28T12:35:03;98702.94;;;5.25;53.22
63285;BME280;49409;55.708;37.522;2022-12-28T12:43:08;98728.75;;;4.99;53.40
63285;BME280;49409;55.708;37.522;2022-12-28T13:03:51;98754.47;;;5.02;52.81
63285;BME280;49409;55.708;37.522;2022-12-28T13:06:28;98742.84;;;4.76;53.63
63285;BME280;49409;55.708;37.522;2022-12-28T13:08:58;98756.03;;;4.92;53.18
63285;BME280;49409;55.708;37.522;2022-12-28T13:11:24;98765.03;;;4.78;53.49
63285;BME280;49409;55.708;37.522;2022-12-28T13:13:54;98760.78;;;4.55;54.21
63285;BME280;49409;55.708;37.522;2022-12-28T13:16:25;98770.91;;;4.59;53.69
63285;BME280;49409;55.708;37.522;2022-12-28T13:19:20;98771.66;;;4.63;54.24
63285;BME280;49409;55.708;37.522;2022-12-28T13:21:48;98763.53;;;4.48;54.12
63285;BME280;49409;55.708;37.522;2022-12-28T13:24:19;98769.34;;;4.43;54.23
63285;BME280;49409;55.708;37.522;2022-12-28T13:26:45;98771.28;;;4.64;54.24
63285;BME280;49409;55.708;37.522;2022-12-28T13:29:23;98777.91;;;4.67;53.92
63285;BME280;49409;55.708;37.522;2022-12-28T13:31:49;98778.66;;;4.64;53.81
63285;BME280;49409;55.708;37.522;2022-12-28T13:34:27;98783.34;;;4.49;53.86
63285;BME280;49409;55.708;37.522;2022-12-28T13:36:55;98787.25;;;4.51;53.53
63285;BME280;49409;55.708;37.522;2022-12-28T13:39:29;98778.31;;;4.54;53.55
63285;BME280;49409;55.708;37.522;2022-12-28T13:41:59;98775.56;;;4.44;53.95
63285;BME280;49409;55.708;37.522;2022-12-28T13:52:27;98803.97;;;4.53;53.29
63285;BME280;49409;55.708;37.522;2022-12-28T13:54:57;98802.03;;;4.43;53.77
63285;BME280;49409;55.708;37.522;2022-12-28T13:57:27;98794.25;;;4.45;53.93
63285;BME280;49409;55.708;37.522;2022-12-28T13:59:55;98751.44;;;4.28;53.25
63285;BME280;49409;55.708;37.522;2022-12-28T14:02:22;98805.91;;;4.46;53.81
63285;BME280;49409;55.708;37.522;2022-12-28T14:04:50;98816.81;;;4.35;53.76
63285;BME280;49409;55.708;37.522;2022-12-28T14:07:18;98802.78;;;4.18;53.57
63285;BME280;49409;55.708;37.522;2022-12-28T14:09:44;98777.88;;;4.02;54.87
63285;BME280;49409;55.708;37.522;2022-12-28T14:12:11;98804.34;;;4.20;54.20
63285;BME280;49409;55.708;37.522;2022-12-28T14:14:39;98822.28;;;4.21;54.04
63285;BME280;49409;55.708;37.522;2022-12-28T14:17:06;98807.44;;;4.14;54.10
63285;BME280;49409;55.708;37.522;2022-12-28T14:19:33;98813.72;;;4.33;54.02
63285;BME280;49409;55.708;37.522;2022-12-28T14:21:58;98826.94;;;4.38;54.41
63285;BME280;49409;55.708;37.522;2022-12-28T14:24:24;98809.03;;;4.23;54.65
63285;BME280;49409;55.708;37.522;2022-12-28T14:26:54;98827.31;;;4.44;53.85
63285;BME280;49409;55.708;37.522;2022-12-28T14:29:32;98823.81;;;4.36;54.43
63285;BME280;49409;55.708;37.522;2022-12-28T14:32:00;98818.38;;;4.36;54.08
63285;BME280;49409;55.708;37.522;2022-12-28T14:34:32;98821.50;;;4.49;53.79
63285;BME280;49409;55.708;37.522;2022-12-28T14:36:59;98812.16;;;4.39;53.74
63285;BME280;49409;55.708;37.522;2022-12-28T14:39:33;98799.31;;;4.36;53.79
63285;BME280;49409;55.708;37.522;2022-12-28T14:42:01;98824.59;;;4.40;53.49
63285;BME280;49409;55.708;37.522;2022-12-28T14:44:31;98830.06;;;4.44;53.99